Pioneer, Ohio
Current Conditions -  °F | °C
As of 12:35 AM on Sunday 26 Oct 2014 (Local Time) from KJYM Reporting Station
Clear Clear  
Wind Chill: 53°   Ceiling: Unl
Heat Index: 53°   Visibility: 10mi
Dew Point: 33°   Wind: 8mph
Humidity: 47%   Direction: 300°WNW
Pressure: 29.87"   Gusts: NA
Location:  41.68°N, 84.55°W
Report Text: KJYM 260435Z AUTO 30007KT 10SM CLR 11/00 A2987 RMK AO2 T01140003
Loading
Personal Weather Stations






























Interactive Weather Map
Tropical Storm Tracking
New forecast layout! Learn more

10-Day Weather Forecast

Advertisements
Track Severe Weather on mobile